Tabellarische Übersicht vom Samstag, den 20.07.2024

Oder anderes Datum wählen:






max 31,5°C 94,0% 19,6°C 1014,9hPa 31,0°C 28,4km/h (4Bft) 9,4km/h 329° (NW) ∑0,0l/m² 91,000klx ∑0,0min
min 15,8°C 37,0% 14,7°C 1006,1hPa 16,0°C 0,0km/h (0Bft) 0,0km/h 56° (NO) ∑0,0l/m² 0,000klx ∑0,0min
Ø 23,4°C 70,0% 16,7°C 1010,5hPa 23,0°C 6,5km/h (2Bft) 3,0km/h 148° (SO) ∑0,0l/m² 49,000klx ∑0,0min
Zeit Temperatur Luftfeuchte Taupunkt Luftdruck Windchill Windböen Windgeschwindigkeit Windrichtung Regen Helligkeit Regenzeit
17:35 31,0°C 40,2% 15,9°C 1006,1hPa 31,0°C 4,3km/h (1Bft) 2,0km/h 246° (SW) 0,0l/m² 43,768klx 0,0min
17:30 31,1°C 40,4% 16,0°C 1006,2hPa 31,1°C 6,5km/h (2Bft) 2,8km/h 248° (W) 0,0l/m² 48,292klx 0,0min
17:25 31,3°C 39,8% 16,0°C 1006,2hPa 31,3°C 7,9km/h (2Bft) 2,9km/h 274° (W) 0,0l/m² 49,767klx 0,0min
17:20 31,5°C 37,9% 15,5°C 1006,3hPa 31,5°C 9,0km/h (2Bft) 5,5km/h 171° (S) 0,0l/m² 51,301klx 0,0min
17:15 31,4°C 37,4% 15,1°C 1006,4hPa 31,4°C 10,8km/h (2Bft) 4,4km/h 109° (O) 0,0l/m² 53,899klx 0,0min
17:10 31,5°C 36,7% 15,0°C 1006,5hPa 31,5°C 10,4km/h (2Bft) 5,2km/h 118° (SO) 0,0l/m² 53,875klx 0,0min
17:05 31,4°C 37,8% 15,3°C 1006,6hPa 31,4°C 8,6km/h (2Bft) 5,2km/h 133° (SO) 0,0l/m² 55,588klx 0,0min
17:00 31,3°C 39,5% 15,9°C 1006,6hPa 31,3°C 9,0km/h (2Bft) 4,6km/h 166° (S) 0,0l/m² 58,013klx 0,0min
16:55 31,0°C 41,2% 16,3°C 1006,6hPa 31,0°C 9,7km/h (2Bft) 5,0km/h 195° (S) 0,0l/m² 59,246klx 0,0min
16:50 30,8°C 42,4% 16,5°C 1006,7hPa 30,8°C 10,8km/h (2Bft) 4,5km/h 185° (S) 0,0l/m² 61,382klx 0,0min
16:45 30,6°C 43,8% 16,9°C 1006,7hPa 30,6°C 8,3km/h (2Bft) 3,5km/h 255° (W) 0,0l/m² 63,146klx 0,0min
16:40 30,8°C 43,4% 16,9°C 1006,8hPa 30,8°C 7,9km/h (2Bft) 3,4km/h 329° (NW) 0,0l/m² 65,377klx 0,0min
16:35 30,9°C 42,3% 16,6°C 1006,8hPa 30,9°C 6,1km/h (2Bft) 3,3km/h 319° (NW) 0,0l/m² 66,630klx 0,0min
16:30 30,9°C 39,5% 15,6°C 1006,8hPa 30,9°C 5,8km/h (1Bft) 3,1km/h 192° (S) 0,0l/m² 67,010klx 0,0min
16:25 31,0°C 37,4% 14,8°C 1006,9hPa 31,0°C 6,8km/h (2Bft) 3,2km/h 110° (O) 0,0l/m² 67,557klx 0,0min
16:20 31,0°C 39,2% 15,5°C 1006,9hPa 31,0°C 6,5km/h (2Bft) 3,2km/h 173° (S) 0,0l/m² 68,849klx 0,0min
16:15 30,9°C 39,4% 15,5°C 1007,0hPa 30,9°C 14,0km/h (3Bft) 7,2km/h 166° (S) 0,0l/m² 70,884klx 0,0min
16:10 30,9°C 39,2% 15,4°C 1007,0hPa 30,9°C 9,4km/h (2Bft) 3,8km/h 156° (SO) 0,0l/m² 71,723klx 0,0min
16:05 30,8°C 41,2% 16,1°C 1007,1hPa 30,8°C 8,6km/h (2Bft) 3,2km/h 115° (SO) 0,0l/m² 71,916klx 0,0min
16:00 30,6°C 42,7% 16,5°C 1007,1hPa 30,6°C 9,7km/h (2Bft) 3,3km/h 202° (S) 0,0l/m² 70,246klx 0,0min
15:55 30,6°C 41,7% 16,1°C 1007,1hPa 30,6°C 9,0km/h (2Bft) 4,6km/h 181° (S) 0,0l/m² 72,497klx 0,0min
15:50 30,4°C 41,0% 15,6°C 1007,2hPa 30,4°C 5,4km/h (1Bft) 3,2km/h 169° (S) 0,0l/m² 75,341klx 0,0min
15:45 30,5°C 42,0% 16,1°C 1007,2hPa 30,5°C 5,8km/h (1Bft) 2,6km/h 228° (SW) 0,0l/m² 76,619klx 0,0min
15:40 30,8°C 41,2% 16,0°C 1007,2hPa 30,8°C 13,7km/h (3Bft) 5,3km/h 230° (SW) 0,0l/m² 79,617klx 0,0min
15:35 30,9°C 42,2% 16,6°C 1007,3hPa 30,9°C 8,3km/h (2Bft) 3,4km/h 202° (S) 0,0l/m² 79,786klx 0,0min
15:30 31,1°C 39,9% 15,8°C 1007,3hPa 31,1°C 13,0km/h (3Bft) 5,6km/h 151° (SO) 0,0l/m² 79,889klx 0,0min
15:25 31,0°C 40,5% 16,1°C 1007,4hPa 31,0°C 13,7km/h (3Bft) 6,3km/h 185° (S) 0,0l/m² 81,655klx 0,0min
15:20 30,8°C 41,3% 16,2°C 1007,4hPa 30,8°C 13,0km/h (3Bft) 6,2km/h 154° (SO) 0,0l/m² 80,623klx 0,0min
15:15 30,9°C 41,5% 16,3°C 1007,5hPa 30,9°C 12,6km/h (3Bft) 4,5km/h 158° (S) 0,0l/m² 82,237klx 0,0min
15:10 30,9°C 41,3% 16,2°C 1007,5hPa 30,8°C 15,8km/h (3Bft) 7,5km/h 166° (S) 0,0l/m² 84,166klx 0,0min
15:05 30,6°C 42,4% 16,4°C 1007,6hPa 30,6°C 12,2km/h (3Bft) 6,3km/h 161° (S) 0,0l/m² 85,022klx 0,0min
15:00 30,4°C 43,6% 16,6°C 1007,7hPa 30,2°C 14,8km/h (3Bft) 8,2km/h 185° (S) 0,0l/m² 85,317klx 0,0min
14:55 30,4°C 44,6% 17,0°C 1007,8hPa 30,4°C 11,2km/h (2Bft) 5,5km/h 164° (S) 0,0l/m² 84,531klx 0,0min
14:50 30,6°C 44,1% 17,0°C 1007,8hPa 30,5°C 16,6km/h (3Bft) 8,1km/h 182° (S) 0,0l/m² 85,895klx 0,0min
14:45 30,5°C 44,0% 16,8°C 1007,9hPa 30,5°C 16,9km/h (3Bft) 6,6km/h 185° (S) 0,0l/m² 87,611klx 0,0min
14:40 30,3°C 45,9% 17,3°C 1008,0hPa 30,2°C 21,2km/h (4Bft) 7,0km/h 200° (S) 0,0l/m² 87,772klx 0,0min
14:35 30,1°C 45,5% 17,0°C 1008,1hPa 30,1°C 8,6km/h (2Bft) 3,1km/h 168° (S) 0,0l/m² 85,965klx 0,0min
14:30 30,2°C 45,1% 16,9°C 1008,1hPa 30,1°C 16,2km/h (3Bft) 7,5km/h 178° (S) 0,0l/m² 86,931klx 0,0min
14:25 29,8°C 46,6% 17,1°C 1008,1hPa 29,8°C 11,5km/h (2Bft) 4,9km/h 193° (S) 0,0l/m² 87,639klx 0,0min
14:20 30,1°C 45,9% 17,2°C 1008,2hPa 30,1°C 16,9km/h (3Bft) 5,0km/h 232° (SW) 0,0l/m² 86,820klx 0,0min
14:15 30,2°C 46,3% 17,4°C 1008,2hPa 30,2°C 15,8km/h (3Bft) 6,6km/h 190° (S) 0,0l/m² 86,636klx 0,0min
14:10 30,4°C 46,2% 17,5°C 1008,2hPa 30,4°C 11,2km/h (2Bft) 5,2km/h 170° (S) 0,0l/m² 88,024klx 0,0min
14:05 30,2°C 47,4% 17,7°C 1008,3hPa 30,1°C 15,5km/h (3Bft) 6,9km/h 172° (S) 0,0l/m² 88,012klx 0,0min
14:00 30,3°C 46,8% 17,6°C 1008,3hPa 30,2°C 14,0km/h (3Bft) 7,1km/h 201° (S) 0,0l/m² 86,751klx 0,0min
13:55 30,3°C 46,1% 17,4°C 1008,3hPa 30,1°C 14,8km/h (3Bft) 9,1km/h 188° (S) 0,0l/m² 86,108klx 0,0min
13:50 30,2°C 47,7% 17,9°C 1008,4hPa 30,2°C 15,5km/h (3Bft) 5,5km/h 193° (S) 0,0l/m² 86,550klx 0,0min
13:45 30,2°C 49,0% 18,3°C 1008,4hPa 30,1°C 15,5km/h (3Bft) 7,5km/h 187° (S) 0,0l/m² 81,400klx 0,0min
13:40 30,3°C 48,0% 18,0°C 1008,4hPa 30,1°C 19,8km/h (3Bft) 9,2km/h 174° (S) 0,0l/m² 87,005klx 0,0min
13:35 30,4°C 46,8% 17,7°C 1008,4hPa 30,3°C 18,4km/h (3Bft) 8,1km/h 180° (S) 0,0l/m² 70,203klx 0,0min
13:30 30,5°C 45,5% 17,4°C 1008,4hPa 30,4°C 19,8km/h (3Bft) 7,2km/h 155° (SO) 0,0l/m² 83,887klx 0,0min
13:25 30,4°C 46,4% 17,6°C 1008,5hPa 30,3°C 15,5km/h (3Bft) 7,2km/h 157° (SO) 0,0l/m² 84,752klx 0,0min
13:20 30,3°C 47,3% 17,8°C 1008,5hPa 30,3°C 13,7km/h (3Bft) 6,0km/h 179° (S) 0,0l/m² 86,467klx 0,0min
13:15 30,5°C 46,9% 17,9°C 1008,6hPa 30,5°C 16,2km/h (3Bft) 6,9km/h 203° (SW) 0,0l/m² 87,448klx 0,0min
13:10 30,3°C 46,5% 17,6°C 1008,6hPa 30,1°C 28,4km/h (4Bft) 9,4km/h 190° (S) 0,0l/m² 91,124klx 0,0min
13:05 30,4°C 46,7% 17,7°C 1008,6hPa 30,4°C 14,0km/h (3Bft) 6,2km/h 174° (S) 0,0l/m² 68,235klx 0,0min
13:00 30,4°C 48,2% 18,2°C 1008,6hPa 30,2°C 16,6km/h (3Bft) 9,0km/h 182° (S) 0,0l/m² 85,736klx 0,0min
12:55 30,1°C 48,8% 18,1°C 1008,6hPa 30,1°C 12,2km/h (3Bft) 5,7km/h 145° (SO) 0,0l/m² 82,066klx 0,0min
12:50 30,2°C 50,2% 18,7°C 1008,8hPa 30,0°C 15,8km/h (3Bft) 8,3km/h 184° (S) 0,0l/m² 84,758klx 0,0min
12:45 30,6°C 48,9% 18,6°C 1008,9hPa 30,6°C 12,2km/h (3Bft) 5,6km/h 194° (S) 0,0l/m² 88,089klx 0,0min
12:40 30,8°C 47,5% 18,4°C 1008,9hPa 30,8°C 13,0km/h (3Bft) 4,6km/h 194° (S) 0,0l/m² 79,067klx 0,0min
12:35 31,1°C 47,2% 18,5°C 1008,9hPa 31,0°C 19,1km/h (3Bft) 7,5km/h 175° (S) 0,0l/m² 82,213klx 0,0min
12:30 31,3°C 47,7% 18,9°C 1008,9hPa 31,3°C 11,2km/h (2Bft) 5,8km/h 140° (SO) 0,0l/m² 82,862klx 0,0min
12:25 30,9°C 49,1% 19,0°C 1008,9hPa 30,9°C 7,9km/h (2Bft) 3,8km/h 170° (S) 0,0l/m² 80,357klx 0,0min
12:20 30,7°C 49,1% 18,8°C 1008,9hPa 30,5°C 15,5km/h (3Bft) 8,2km/h 184° (S) 0,0l/m² 79,282klx 0,0min
12:15 30,7°C 49,4% 18,9°C 1009,0hPa 30,7°C 15,1km/h (3Bft) 3,9km/h 171° (S) 0,0l/m² 75,987klx 0,0min
12:10 30,6°C 48,9% 18,6°C 1009,1hPa 30,5°C 12,6km/h (3Bft) 7,5km/h 175° (S) 0,0l/m² 77,771klx 0,0min
12:05 30,4°C 50,6% 19,0°C 1009,2hPa 30,4°C 9,7km/h (2Bft) 4,7km/h 179° (S) 0,0l/m² 75,522klx 0,0min
12:00 30,4°C 48,4% 18,3°C 1009,2hPa 30,4°C 11,9km/h (2Bft) 4,8km/h 129° (SO) 0,0l/m² 73,725klx 0,0min
11:55 30,4°C 50,3% 18,9°C 1009,3hPa 30,4°C 10,1km/h (2Bft) 5,0km/h 124° (SO) 0,0l/m² 71,903klx 0,0min
11:50 30,1°C 50,5% 18,7°C 1009,4hPa 30,1°C 10,4km/h (2Bft) 5,3km/h 167° (S) 0,0l/m² 71,813klx 0,0min
11:45 30,1°C 51,3% 18,9°C 1009,4hPa 30,1°C 12,2km/h (3Bft) 5,4km/h 169° (S) 0,0l/m² 72,699klx 0,0min
11:40 30,2°C 50,4% 18,7°C 1009,5hPa 30,2°C 12,2km/h (3Bft) 5,6km/h 167° (S) 0,0l/m² 72,455klx 0,0min
11:35 30,1°C 52,2% 19,2°C 1009,5hPa 30,1°C 7,2km/h (2Bft) 3,3km/h 145° (SO) 0,0l/m² 70,792klx 0,0min
11:30 29,9°C 52,0% 19,0°C 1009,6hPa 29,9°C 10,4km/h (2Bft) 5,2km/h 165° (S) 0,0l/m² 70,168klx 0,0min
11:25 29,7°C 52,5% 18,9°C 1009,6hPa 29,7°C 7,9km/h (2Bft) 4,4km/h 163° (S) 0,0l/m² 69,013klx 0,0min
11:20 29,4°C 54,7% 19,3°C 1009,7hPa 29,4°C 9,7km/h (2Bft) 4,0km/h 163° (S) 0,0l/m² 68,181klx 0,0min
11:15 29,1°C 55,2% 19,2°C 1009,8hPa 29,1°C 8,3km/h (2Bft) 3,1km/h 162° (S) 0,0l/m² 66,321klx 0,0min
11:10 29,2°C 54,9% 19,1°C 1009,8hPa 29,2°C 10,4km/h (2Bft) 4,2km/h 189° (S) 0,0l/m² 64,703klx 0,0min
11:05 29,3°C 56,0% 19,6°C 1009,8hPa 29,3°C 5,8km/h (1Bft) 3,4km/h 179° (S) 0,0l/m² 64,163klx 0,0min
11:00 29,0°C 55,7% 19,3°C 1009,8hPa 29,0°C 10,4km/h (2Bft) 4,2km/h 173° (S) 0,0l/m² 62,838klx 0,0min
10:55 29,3°C 53,9% 19,0°C 1009,9hPa 29,3°C 11,9km/h (2Bft) 5,7km/h 188° (S) 0,0l/m² 61,773klx 0,0min
10:50 29,2°C 55,3% 19,3°C 1009,9hPa 29,2°C 9,4km/h (2Bft) 5,5km/h 160° (S) 0,0l/m² 60,788klx 0,0min
10:45 29,1°C 55,2% 19,2°C 1009,9hPa 29,1°C 8,3km/h (2Bft) 3,6km/h 140° (SO) 0,0l/m² 59,585klx 0,0min
10:40 28,9°C 54,9% 18,9°C 1010,0hPa 28,9°C 11,5km/h (2Bft) 5,9km/h 164° (S) 0,0l/m² 57,921klx 0,0min
10:35 28,7°C 55,9% 19,0°C 1010,0hPa 28,7°C 10,1km/h (2Bft) 4,5km/h 134° (SO) 0,0l/m² 56,762klx 0,0min
10:30 28,6°C 55,7% 18,8°C 1010,0hPa 28,6°C 7,9km/h (2Bft) 4,6km/h 191° (S) 0,0l/m² 53,507klx 0,0min
10:25 28,5°C 56,5% 19,0°C 1010,1hPa 28,5°C 9,4km/h (2Bft) 4,8km/h 142° (SO) 0,0l/m² 53,968klx 0,0min
10:20 28,4°C 57,0% 19,1°C 1010,1hPa 28,4°C 6,5km/h (2Bft) 3,7km/h 156° (SO) 0,0l/m² 52,832klx 0,0min
10:15 28,2°C 57,7% 19,1°C 1010,1hPa 28,2°C 10,8km/h (2Bft) 5,1km/h 162° (S) 0,0l/m² 51,356klx 0,0min
10:10 28,1°C 58,6% 19,3°C 1010,2hPa 28,1°C 10,4km/h (2Bft) 5,2km/h 151° (SO) 0,0l/m² 49,929klx 0,0min
10:05 27,6°C 60,9% 19,4°C 1010,2hPa 27,6°C 7,2km/h (2Bft) 3,1km/h 91° (O) 0,0l/m² 48,483klx 0,0min
10:00 27,3°C 60,9% 19,1°C 1010,2hPa 27,3°C 5,4km/h (1Bft) 2,9km/h 187° (S) 0,0l/m² 47,108klx 0,0min
09:55 27,2°C 61,7% 19,2°C 1010,3hPa 27,2°C 9,0km/h (2Bft) 4,8km/h 188° (S) 0,0l/m² 45,788klx 0,0min
09:50 27,0°C 62,3% 19,2°C 1010,3hPa 27,0°C 5,8km/h (1Bft) 3,0km/h 161° (S) 0,0l/m² 44,327klx 0,0min
09:45 26,9°C 61,4% 18,8°C 1010,4hPa 26,9°C 6,1km/h (2Bft) 3,1km/h 187° (S) 0,0l/m² 42,696klx 0,0min
09:40 26,7°C 61,0% 18,6°C 1010,4hPa 26,7°C 5,8km/h (1Bft) 2,8km/h 171° (S) 0,0l/m² 41,027klx 0,0min
09:35 26,5°C 59,7% 18,0°C 1010,4hPa 26,5°C 5,0km/h (1Bft) 2,9km/h 166° (S) 0,0l/m² 39,326klx 0,0min
09:30 26,2°C 62,0% 18,4°C 1010,4hPa 26,2°C 5,8km/h (1Bft) 3,4km/h 166° (S) 0,0l/m² 37,860klx 0,0min
09:25 25,9°C 63,2% 18,4°C 1010,5hPa 25,9°C 6,5km/h (2Bft) 3,2km/h 166° (S) 0,0l/m² 36,507klx 0,0min
09:20 25,6°C 65,9% 18,7°C 1010,4hPa 25,6°C 4,7km/h (1Bft) 1,8km/h 181° (S) 0,0l/m² 35,241klx 0,0min
09:15 25,0°C 68,6% 18,8°C 1010,5hPa 25,0°C 3,2km/h (1Bft) 1,6km/h 178° (S) 0,0l/m² 33,946klx 0,0min
09:10 24,7°C 68,5% 18,5°C 1010,5hPa 24,7°C 3,2km/h (1Bft) 1,7km/h 185° (S) 0,0l/m² 32,681klx 0,0min
09:05 24,4°C 68,7% 18,3°C 1010,5hPa 24,4°C 1,4km/h (0Bft) 1,1km/h 132° (SO) 0,0l/m² 31,140klx 0,0min
09:00 23,8°C 70,1% 18,0°C 1010,6hPa 23,8°C 0,0km/h (0Bft) 0,0km/h - 0,0l/m² 29,549klx 0,0min
08:55 23,2°C 71,2% 17,7°C 1010,6hPa 23,2°C 1,4km/h (0Bft) 1,2km/h 56° (NO) 0,0l/m² 28,085klx 0,0min
08:50 23,3°C 71,2% 17,8°C 1010,6hPa 23,3°C 1,1km/h (0Bft) 0,9km/h 124° (SO) 0,0l/m² 26,663klx 0,0min
08:45 23,2°C 71,4% 17,7°C 1010,6hPa 23,2°C 1,1km/h (0Bft) 0,9km/h 163° (S) 0,0l/m² 24,916klx 0,0min
08:40 22,8°C 73,9% 17,9°C 1010,7hPa 22,8°C 2,9km/h (1Bft) 1,3km/h 70° (O) 0,0l/m² 22,611klx 0,0min
08:35 22,0°C 75,3% 17,4°C 1010,7hPa 22,0°C 2,9km/h (1Bft) 1,3km/h 74° (O) 0,0l/m² 21,989klx 0,0min
08:30 21,6°C 76,9% 17,4°C 1010,7hPa 21,6°C 1,4km/h (0Bft) 1,3km/h 202° (S) 0,0l/m² 20,770klx 0,0min
08:25 21,4°C 77,3% 17,2°C 1010,7hPa 21,4°C 0,0km/h (0Bft) 0,0km/h - 0,0l/m² 19,711klx 0,0min
08:20 21,1°C 78,6% 17,2°C 1010,7hPa 21,1°C 0,0km/h (0Bft) 0,0km/h - 0,0l/m² 18,740klx 0,0min
08:15 20,2°C 81,8% 16,9°C 1010,7hPa 20,2°C 0,0km/h (0Bft) 0,0km/h - 0,0l/m² 17,924klx 0,0min
08:10 19,0°C 86,6% 16,7°C 1010,8hPa 19,0°C 1,8km/h (0Bft) 1,1km/h 167° (S) 0,0l/m² 16,857klx 0,0min
08:05 18,4°C 87,4% 16,2°C 1010,8hPa 18,4°C 1,4km/h (0Bft) 1,0km/h 164° (S) 0,0l/m² 15,905klx 0,0min
08:00 18,0°C 88,1% 16,0°C 1010,8hPa 18,0°C 2,2km/h (1Bft) 1,0km/h 131° (SO) 0,0l/m² 14,977klx 0,0min
07:55 17,8°C 89,6% 16,1°C 1010,8hPa 17,8°C 1,1km/h (0Bft) 1,0km/h 180° (S) 0,0l/m² 13,999klx 0,0min
07:50 17,6°C 90,6% 16,0°C 1010,8hPa 17,6°C 2,9km/h (1Bft) 1,3km/h 179° (S) 0,0l/m² 13,056klx 0,0min
07:45 17,3°C 91,4% 15,9°C 1010,8hPa 17,3°C 3,2km/h (1Bft) 1,5km/h 175° (S) 0,0l/m² 12,182klx 0,0min
07:40 17,0°C 91,6% 15,6°C 1010,8hPa 17,0°C 0,0km/h (0Bft) 0,0km/h - 0,0l/m² 11,389klx 0,0min
07:35 16,9°C 91,8% 15,5°C 1010,8hPa 16,9°C 1,4km/h (0Bft) 1,0km/h 167° (S) 0,0l/m² 10,683klx 0,0min
07:30 16,8°C 91,9% 15,4°C 1010,8hPa 16,8°C 0,0km/h (0Bft) 0,0km/h - 0,0l/m² 9,934klx 0,0min
07:25 16,7°C 92,2% 15,4°C 1010,8hPa 16,7°C 0,7km/h (0Bft) 0,7km/h 224° (SW) 0,0l/m² 9,234klx 0,0min
07:20 16,6°C 92,0% 15,3°C 1010,9hPa 16,6°C 1,1km/h (0Bft) 0,9km/h 220° (SW) 0,0l/m² 8,595klx 0,0min
07:15 16,4°C 92,0% 15,1°C 1010,9hPa 16,4°C 1,1km/h (0Bft) 0,9km/h 135° (SO) 0,0l/m² 8,014klx 0,0min
07:10 16,3°C 92,3% 15,0°C 1011,0hPa 16,3°C 1,4km/h (0Bft) 0,9km/h 130° (SO) 0,0l/m² 6,682klx 0,0min
07:05 16,2°C 92,3% 14,9°C 1011,0hPa 16,2°C 0,7km/h (0Bft) 0,7km/h 118° (SO) 0,0l/m² 5,597klx 0,0min
07:00 16,1°C 92,4% 14,9°C 1011,1hPa 16,1°C 2,9km/h (1Bft) 1,3km/h 137° (SO) 0,0l/m² 5,294klx 0,0min
06:55 16,1°C 92,8% 14,9°C 1011,1hPa 16,1°C 3,6km/h (1Bft) 1,7km/h 152° (SO) 0,0l/m² 4,972klx 0,0min
06:50 16,0°C 93,1% 14,9°C 1011,2hPa 16,0°C 3,2km/h (1Bft) 1,5km/h 164° (S) 0,0l/m² 4,664klx 0,0min
06:45 15,9°C 93,6% 14,9°C 1011,2hPa 15,9°C 1,8km/h (0Bft) 1,2km/h 175° (S) 0,0l/m² 4,330klx 0,0min
06:40 15,9°C 93,7% 14,8°C 1011,2hPa 15,9°C 2,5km/h (1Bft) 1,1km/h 123° (SO) 0,0l/m² 3,980klx 0,0min
06:35 15,9°C 93,7% 14,8°C 1011,3hPa 15,9°C 2,2km/h (1Bft) 1,2km/h 136° (SO) 0,0l/m² 3,623klx 0,0min
06:30 15,8°C 93,6% 14,8°C 1011,4hPa 15,8°C 3,2km/h (1Bft) 1,4km/h 171° (S) 0,0l/m² 3,258klx 0,0min
06:25 15,8°C 93,4% 14,8°C 1011,4hPa 15,8°C 3,2km/h (1Bft) 1,5km/h 150° (SO) 0,0l/m² 2,865klx 0,0min
06:20 15,8°C 93,5% 14,8°C 1011,4hPa 15,8°C 2,9km/h (1Bft) 1,4km/h 131° (SO) 0,0l/m² 2,427klx 0,0min
06:15 15,8°C 93,7% 14,8°C 1011,5hPa 15,8°C 3,6km/h (1Bft) 1,7km/h 127° (SO) 0,0l/m² 1,989klx 0,0min
06:10 15,8°C 93,6% 14,7°C 1011,5hPa 15,8°C 4,0km/h (1Bft) 1,8km/h 111° (O) 0,0l/m² 1,605klx 0,0min
06:05 15,8°C 93,5% 14,8°C 1011,6hPa 15,8°C 2,5km/h (1Bft) 1,2km/h 148° (SO) 0,0l/m² 1,283klx 0,0min
06:00 15,9°C 93,4% 14,8°C 1011,6hPa 15,9°C 3,6km/h (1Bft) 1,5km/h 149° (SO) 0,0l/m² 1,020klx 0,0min
05:55 15,9°C 93,4% 14,9°C 1011,6hPa 15,9°C 3,6km/h (1Bft) 1,7km/h 140° (SO) 0,0l/m² 0,801klx 0,0min
05:50 15,9°C 93,6% 14,9°C 1011,6hPa 15,9°C 2,9km/h (1Bft) 1,5km/h 131° (SO) 0,0l/m² 0,611klx 0,0min
05:45 15,9°C 93,6% 14,9°C 1011,6hPa 15,9°C 3,6km/h (1Bft) 2,0km/h 120° (SO) 0,0l/m² 0,444klx 0,0min
05:40 15,9°C 93,6% 14,9°C 1011,7hPa 15,9°C 5,0km/h (1Bft) 3,1km/h 129° (SO) 0,0l/m² 0,312klx 0,0min
05:35 16,0°C 93,6% 14,9°C 1011,7hPa 16,0°C 4,0km/h (1Bft) 2,0km/h 134° (SO) 0,0l/m² 0,211klx 0,0min
05:30 16,0°C 93,8% 15,0°C 1011,7hPa 16,0°C 4,0km/h (1Bft) 2,0km/h 137° (SO) 0,0l/m² 0,134klx 0,0min
05:25 16,0°C 93,9% 15,0°C 1011,8hPa 16,0°C 4,0km/h (1Bft) 1,9km/h 149° (SO) 0,0l/m² 0,078klx 0,0min
05:20 16,0°C 94,0% 15,0°C 1011,8hPa 16,0°C 3,2km/h (1Bft) 1,5km/h 130° (SO) 0,0l/m² 0,043klx 0,0min
05:15 15,9°C 93,8% 14,9°C 1011,8hPa 15,9°C 4,3km/h (1Bft) 2,0km/h 129° (SO) 0,0l/m² 0,023klx 0,0min
05:10 16,0°C 93,8% 15,0°C 1011,8hPa 16,0°C 4,3km/h (1Bft) 2,1km/h 139° (SO) 0,0l/m² 0,012klx 0,0min
05:05 16,0°C 93,7% 15,0°C 1011,9hPa 16,0°C 4,3km/h (1Bft) 2,0km/h 143° (SO) 0,0l/m² 0,006klx 0,0min
05:00 16,1°C 93,6% 15,0°C 1011,9hPa 16,1°C 4,3km/h (1Bft) 1,7km/h 138° (SO) 0,0l/m² 0,003klx 0,0min
04:55 16,1°C 93,9% 15,2°C 1011,9hPa 16,1°C 3,2km/h (1Bft) 1,8km/h 130° (SO) 0,0l/m² 0,002klx 0,0min
04:50 16,1°C 94,0% 15,1°C 1012,0hPa 16,1°C 3,2km/h (1Bft) 1,7km/h 125° (SO) 0,0l/m² 0,001klx 0,0min
04:45 16,0°C 94,1% 15,1°C 1012,0hPa 16,0°C 4,7km/h (1Bft) 1,6km/h 130° (SO) 0,0l/m² 0,001klx 0,0min
04:40 16,0°C 94,0% 15,0°C 1012,1hPa 16,0°C 3,6km/h (1Bft) 2,0km/h 135° (SO) 0,0l/m² 0,001klx 0,0min
04:35 16,1°C 94,0% 15,1°C 1012,1hPa 16,1°C 3,2km/h (1Bft) 1,8km/h 149° (SO) 0,0l/m² 0,000klx 0,0min
04:30 16,1°C 93,9% 15,1°C 1012,1hPa 16,1°C 3,2km/h (1Bft) 1,5km/h 130° (SO) 0,0l/m² 0,000klx 0,0min
04:25 16,1°C 93,7% 15,1°C 1012,2hPa 16,1°C 3,2km/h (1Bft) 1,4km/h 144° (SO) 0,0l/m² 0,000klx 0,0min
04:20 16,2°C 93,8% 15,2°C 1012,2hPa 16,2°C 1,4km/h (0Bft) 0,9km/h 148° (SO) 0,0l/m² 0,000klx 0,0min
04:15 16,3°C 93,7% 15,2°C 1012,3hPa 16,3°C 2,5km/h (1Bft) 1,2km/h 144° (SO) 0,0l/m² 0,000klx 0,0min
04:10 16,4°C 93,7% 15,3°C 1012,4hPa 16,4°C 2,9km/h (1Bft) 1,4km/h 134° (SO) 0,0l/m² 0,000klx 0,0min
04:05 16,4°C 94,0% 15,4°C 1012,4hPa 16,4°C 4,0km/h (1Bft) 1,9km/h 123° (SO) 0,0l/m² 0,000klx 0,0min
04:00 16,3°C 93,8% 15,3°C 1012,5hPa 16,3°C 4,0km/h (1Bft) 1,8km/h 122° (SO) 0,0l/m² 0,000klx 0,0min
03:55 16,4°C 93,8% 15,4°C 1012,5hPa 16,4°C 1,1km/h (0Bft) 0,9km/h 177° (S) 0,0l/m² 0,000klx 0,0min
03:50 16,4°C 94,0% 15,4°C 1012,5hPa 16,4°C 2,5km/h (1Bft) 1,3km/h 131° (SO) 0,0l/m² 0,000klx 0,0min
03:45 16,4°C 93,9% 15,4°C 1012,5hPa 16,4°C 2,2km/h (1Bft) 1,0km/h 129° (SO) 0,0l/m² 0,000klx 0,0min
03:40 16,4°C 94,0% 15,4°C 1012,6hPa 16,4°C 1,1km/h (0Bft) 0,9km/h 220° (SW) 0,0l/m² 0,000klx 0,0min
03:35 16,3°C 93,6% 15,3°C 1012,6hPa 16,3°C 1,4km/h (0Bft) 0,9km/h 221° (SW) 0,0l/m² 0,000klx 0,0min
03:30 16,4°C 93,6% 15,4°C 1012,6hPa 16,4°C 0,0km/h (0Bft) 0,0km/h - 0,0l/m² 0,000klx 0,0min
03:25 16,4°C 93,4% 15,4°C 1012,7hPa 16,4°C 0,0km/h (0Bft) 0,0km/h - 0,0l/m² 0,000klx 0,0min
03:20 16,5°C 93,3% 15,4°C 1012,8hPa 16,5°C 0,0km/h (0Bft) 0,0km/h - 0,0l/m² 0,000klx 0,0min
03:15 16,6°C 93,2% 15,5°C 1012,8hPa 16,6°C 2,5km/h (1Bft) 1,1km/h 224° (SW) 0,0l/m² 0,000klx 0,0min
03:10 16,7°C 93,1% 15,6°C 1012,9hPa 16,7°C 0,0km/h (0Bft) 0,0km/h - 0,0l/m² 0,000klx 0,0min
03:05 16,7°C 93,1% 15,6°C 1013,0hPa 16,7°C 0,0km/h (0Bft) 0,0km/h - 0,0l/m² 0,000klx 0,0min
03:00 16,7°C 92,7% 15,5°C 1013,1hPa 16,7°C 0,0km/h (0Bft) 0,0km/h - 0,0l/m² 0,000klx 0,0min
02:55 16,8°C 92,4% 15,5°C 1013,2hPa 16,8°C 0,0km/h (0Bft) 0,0km/h - 0,0l/m² 0,000klx 0,0min
02:50 17,0°C 92,2% 15,7°C 1013,3hPa 17,0°C 1,4km/h (0Bft) 1,1km/h 155° (SO) 0,0l/m² 0,000klx 0,0min
02:45 17,1°C 92,3% 15,8°C 1013,3hPa 17,1°C 2,5km/h (1Bft) 1,0km/h 143° (SO) 0,0l/m² 0,000klx 0,0min
02:40 17,1°C 92,3% 15,8°C 1013,3hPa 17,1°C 1,1km/h (0Bft) 0,9km/h 148° (SO) 0,0l/m² 0,000klx 0,0min
02:35 17,0°C 92,1% 15,7°C 1013,4hPa 17,0°C 1,1km/h (0Bft) 0,8km/h 129° (SO) 0,0l/m² 0,000klx 0,0min
02:30 17,1°C 91,7% 15,7°C 1013,5hPa 17,1°C 0,0km/h (0Bft) 0,0km/h - 0,0l/m² 0,000klx 0,0min
02:25 17,2°C 91,2% 15,7°C 1013,5hPa 17,2°C 0,7km/h (0Bft) 0,7km/h 230° (SW) 0,0l/m² 0,000klx 0,0min
02:20 17,3°C 91,0% 15,8°C 1013,5hPa 17,3°C 0,7km/h (0Bft) 0,7km/h 142° (SO) 0,0l/m² 0,000klx 0,0min
02:15 17,5°C 90,6% 15,9°C 1013,6hPa 17,5°C 1,8km/h (0Bft) 1,1km/h 145° (SO) 0,0l/m² 0,000klx 0,0min
02:10 17,6°C 90,5% 16,1°C 1013,7hPa 17,6°C 2,2km/h (1Bft) 1,2km/h 128° (SO) 0,0l/m² 0,000klx 0,0min
02:05 17,7°C 90,6% 16,1°C 1013,7hPa 17,7°C 2,9km/h (1Bft) 1,4km/h 96° (O) 0,0l/m² 0,000klx 0,0min
02:00 17,6°C 91,0% 16,1°C 1013,8hPa 17,6°C 3,2km/h (1Bft) 1,4km/h 128° (SO) 0,0l/m² 0,000klx 0,0min
01:55 17,6°C 91,1% 16,1°C 1013,8hPa 17,6°C 3,6km/h (1Bft) 1,8km/h 131° (SO) 0,0l/m² 0,000klx 0,0min
01:50 17,7°C 91,1% 16,2°C 1013,9hPa 17,7°C 2,5km/h (1Bft) 1,1km/h 126° (SO) 0,0l/m² 0,000klx 0,0min
01:45 17,7°C 91,4% 16,3°C 1013,9hPa 17,7°C 4,3km/h (1Bft) 2,0km/h 130° (SO) 0,0l/m² 0,000klx 0,0min
01:40 17,6°C 91,4% 16,2°C 1013,9hPa 17,6°C 4,3km/h (1Bft) 2,0km/h 133° (SO) 0,0l/m² 0,000klx 0,0min
01:35 17,6°C 91,2% 16,2°C 1014,0hPa 17,6°C 3,6km/h (1Bft) 1,9km/h 134° (SO) 0,0l/m² 0,000klx 0,0min
01:30 17,6°C 91,1% 16,2°C 1014,0hPa 17,6°C 3,6km/h (1Bft) 1,8km/h 136° (SO) 0,0l/m² 0,000klx 0,0min
01:25 17,7°C 90,7% 16,2°C 1014,1hPa 17,7°C 3,2km/h (1Bft) 1,9km/h 142° (SO) 0,0l/m² 0,000klx 0,0min
01:20 17,8°C 90,6% 16,2°C 1014,1hPa 17,8°C 4,0km/h (1Bft) 2,1km/h 132° (SO) 0,0l/m² 0,000klx 0,0min
01:15 17,8°C 90,5% 16,2°C 1014,2hPa 17,8°C 2,5km/h (1Bft) 1,1km/h 132° (SO) 0,0l/m² 0,000klx 0,0min
01:10 17,9°C 90,3% 16,3°C 1014,2hPa 17,9°C 3,2km/h (1Bft) 1,7km/h 128° (SO) 0,0l/m² 0,000klx 0,0min
01:05 17,9°C 90,1% 16,3°C 1014,3hPa 17,9°C 2,9km/h (1Bft) 1,6km/h 143° (SO) 0,0l/m² 0,000klx 0,0min
01:00 18,0°C 89,9% 16,3°C 1014,3hPa 18,0°C 3,2km/h (1Bft) 1,6km/h 133° (SO) 0,0l/m² 0,000klx 0,0min
00:55 18,0°C 89,7% 16,3°C 1014,4hPa 18,0°C 2,2km/h (1Bft) 1,1km/h 132° (SO) 0,0l/m² 0,000klx 0,0min
00:50 18,1°C 89,7% 16,4°C 1014,4hPa 18,1°C 1,4km/h (0Bft) 0,9km/h 137° (SO) 0,0l/m² 0,000klx 0,0min
00:45 18,2°C 89,5% 16,4°C 1014,5hPa 18,2°C 1,4km/h (0Bft) 1,0km/h 130° (SO) 0,0l/m² 0,000klx 0,0min
00:40 18,2°C 89,4% 16,4°C 1014,6hPa 18,2°C 1,4km/h (0Bft) 0,9km/h 135° (SO) 0,0l/m² 0,000klx 0,0min
00:35 18,3°C 88,8% 16,4°C 1014,6hPa 18,3°C 0,0km/h (0Bft) 0,0km/h - 0,0l/m² 0,000klx 0,0min
00:30 18,5°C 88,0% 16,5°C 1014,6hPa 18,5°C 0,0km/h (0Bft) 0,0km/h - 0,0l/m² 0,000klx 0,0min
00:25 18,7°C 87,4% 16,6°C 1014,7hPa 18,7°C 0,0km/h (0Bft) 0,0km/h - 0,0l/m² 0,000klx 0,0min
00:20 18,8°C 87,1% 16,6°C 1014,7hPa 18,8°C 3,2km/h (1Bft) 2,0km/h 128° (SO) 0,0l/m² 0,000klx 0,0min
00:15 18,9°C 86,8% 16,6°C 1014,8hPa 18,9°C 3,2km/h (1Bft) 1,8km/h 143° (SO) 0,0l/m² 0,000klx 0,0min
00:10 19,0°C 86,6% 16,7°C 1014,8hPa 19,0°C 3,2km/h (1Bft) 1,4km/h 145° (SO) 0,0l/m² 0,000klx 0,0min
00:05 19,1°C 86,1% 16,7°C 1014,9hPa 19,1°C 3,2km/h (1Bft) 2,0km/h 139° (SO) 0,0l/m² 0,000klx 0,0min
00:00 19,3°C 85,5% 16,8°C 1014,9hPa 19,3°C 3,6km/h (1Bft) 1,8km/h 155° (SO) 0,0l/m² 0,000klx 0,0min

Aktuelle Wetterdaten

20.07.2024 17:35 Uhr